Time;durP1;ratioP1;P1;durP2;ratioP2;P2;SDS_P1;SDS_P2;PMS_P1;PMS_P2;Temp;Humidity;BMP_temperature;BMP_pressure;BME280_temperature;BME280_humidity;BME280_pressure;Samples;Min_cycle;Max_cycle;Signal;HPM_P1;HPM_P2
2023/11/02 00:02:06;;;;;;;12.82;3.50;;;7.20;99.90;;;;;;5141608;27;20047;-93
2023/11/02 00:04:32;;;;;;;9.95;3.25;;;7.20;99.90;;;;;;5141290;27;20026;-91
2023/11/02 00:06:58;;;;;;;11.60;3.70;;;7.20;99.90;;;;;;5141030;27;20031;-91
2023/11/02 00:09:33;;;;;;;7.95;2.83;;;7.20;99.90;;;;;;5140580;27;20022;-92
2023/11/02 00:12:02;;;;;;;12.13;3.20;;;7.20;99.90;;;;;;5142333;27;20146;-93
2023/11/02 00:14:40;;;;;;;6.88;2.88;;;7.20;99.90;;;;;;5141005;27;20029;-94
2023/11/02 00:17:30;;;;;;;21.75;5.72;;;7.10;99.90;;;;;;5141054;27;20023;-94
2023/11/02 00:19:58;;;;;;;9.77;2.90;;;7.20;99.90;;;;;;5141004;27;20102;-95
2023/11/02 00:22:28;;;;;;;9.68;2.45;;;7.20;99.90;;;;;;5141964;27;20054;-94
2023/11/02 00:25:01;;;;;;;5.10;2.03;;;7.20;99.90;;;;;;5142081;27;20027;-94
2023/11/02 00:27:28;;;;;;;9.73;2.40;;;7.20;99.90;;;;;;5140585;27;20157;-93
2023/11/02 00:29:53;;;;;;;11.50;2.55;;;7.20;99.90;;;;;;5140115;27;20053;-93
2023/11/02 00:32:20;;;;;;;10.65;2.30;;;7.10;99.90;;;;;;5140346;27;20054;-93
2023/11/02 00:34:46;;;;;;;9.40;2.80;;;7.10;99.90;;;;;;5140145;27;20064;-93
2023/11/02 00:37:12;;;;;;;3.33;1.80;;;7.10;99.90;;;;;;5140291;27;20027;-93
2023/11/02 00:39:41;;;;;;;6.10;2.00;;;7.10;99.90;;;;;;5140138;27;20051;-94
2023/11/02 00:42:07;;;;;;;8.75;2.05;;;7.10;99.90;;;;;;5140641;27;20070;-93
2023/11/02 00:44:36;;;;;;;6.03;2.00;;;7.10;99.90;;;;;;5140063;27;20023;-93
2023/11/02 00:47:04;;;;;;;9.35;3.13;;;7.10;99.90;;;;;;5140195;27;20042;-93
2023/11/02 00:49:32;;;;;;;7.15;2.08;;;7.10;99.90;;;;;;5140427;27;20024;-92
2023/11/02 00:52:00;;;;;;;9.30;2.00;;;7.10;99.90;;;;;;5139668;27;20027;-92
2023/11/02 00:54:44;;;;;;;8.25;2.05;;;7.10;99.90;;;;;;5140144;28;20486;-91
2023/11/02 00:57:15;;;;;;;6.63;1.90;;;7.10;99.90;;;;;;5140338;28;20476;-93
2023/11/02 00:59:41;;;;;;;9.98;2.00;;;7.10;99.90;;;;;;5141722;27;20376;-93
2023/11/02 01:02:07;;;;;;;5.95;1.58;;;7.20;99.90;;;;;;5142726;28;20070;-94
2023/11/02 01:04:33;;;;;;;6.93;1.80;;;7.10;99.90;;;;;;5142843;28;20027;-93
2023/11/02 01:06:58;;;;;;;6.35;1.90;;;7.10;99.90;;;;;;5143324;28;20026;-94
2023/11/02 01:09:50;;;;;;;5.82;1.85;;;7.10;99.90;;;;;;5140411;28;20119;-94
2023/11/02 01:12:37;;;;;;;4.80;1.92;;;7.10;99.90;;;;;;5139471;28;20503;-94
2023/11/02 01:15:11;;;;;;;6.35;2.33;;;7.20;99.90;;;;;;5139856;28;20115;-91
2023/11/02 01:17:39;;;;;;;5.13;1.67;;;7.20;99.90;;;;;;5123476;28;20028;-94
2023/11/02 01:20:14;;;;;;;7.53;1.75;;;7.20;99.90;;;;;;5139801;28;20510;-94
2023/11/02 01:22:49;;;;;;;6.80;2.55;;;7.20;99.90;;;;;;5140047;28;20027;-93
2023/11/02 01:25:15;;;;;;;6.00;1.92;;;7.30;99.90;;;;;;5140308;28;20035;-93
2023/11/02 01:27:40;;;;;;;3.70;1.60;;;7.30;99.90;;;;;;5146019;28;20048;-93
2023/11/02 01:30:19;;;;;;;3.50;1.50;;;7.30;99.90;;;;;;5156260;27;20051;-93
2023/11/02 01:32:47;;;;;;;4.75;1.40;;;7.30;99.90;;;;;;5154789;27;20027;-93
2023/11/02 01:35:44;;;;;;;2.50;1.17;;;7.30;99.90;;;;;;5148162;28;20033;-94
2023/11/02 01:38:13;;;;;;;3.20;1.45;;;7.30;99.90;;;;;;5141150;28;20080;-93
2023/11/02 01:40:59;;;;;;;2.97;1.30;;;7.30;99.90;;;;;;5139457;28;20055;-93
2023/11/02 01:43:44;;;;;;;2.22;1.33;;;7.30;99.90;;;;;;5139894;28;20027;-93
2023/11/02 01:46:20;;;;;;;4.93;2.47;;;7.30;99.90;;;;;;5139463;28;20107;-93
2023/11/02 01:49:04;;;;;;;4.68;2.03;;;7.30;99.90;;;;;;5139210;28;20038;-93
2023/11/02 01:51:56;;;;;;;4.85;1.23;;;7.40;99.90;;;;;;5139523;28;20062;-93
2023/11/02 01:54:43;;;;;;;5.68;1.70;;;7.30;99.90;;;;;;5139537;28;20044;-94
2023/11/02 01:57:19;;;;;;;4.75;1.23;;;7.30;99.90;;;;;;5138989;28;20113;-92
2023/11/02 02:00:07;;;;;;;2.63;1.30;;;7.40;99.90;;;;;;5139467;28;20027;-93
2023/11/02 02:03:12;;;;;;;4.40;1.02;;;7.40;99.90;;;;;;5139408;28;20038;-93
2023/11/02 02:05:55;;;;;;;1.95;0.80;;;7.40;99.90;;;;;;5140919;27;20043;-93
2023/11/02 02:08:49;;;;;;;3.10;0.98;;;7.40;99.90;;;;;;5143060;27;20080;-93
2023/11/02 02:11:43;;;;;;;2.03;1.55;;;7.40;99.90;;;;;;5143931;27;20039;-92
2023/11/02 02:14:20;;;;;;;2.78;0.77;;;7.40;99.90;;;;;;5135568;27;20076;-94
2023/11/02 02:16:55;;;;;;;3.38;1.35;;;7.40;99.90;;;;;;5149896;27;20027;-92
2023/11/02 02:19:50;;;;;;;2.88;1.00;;;7.50;99.90;;;;;;5145846;27;20023;-93
2023/11/02 02:22:21;;;;;;;1.70;0.80;;;7.50;99.90;;;;;;5147335;27;20035;-93
2023/11/02 02:24:47;;;;;;;2.75;0.70;;;7.50;99.90;;;;;;5144869;27;20043;-93
2023/11/02 02:27:52;;;;;;;1.45;0.77;;;7.50;99.90;;;;;;5143189;27;20035;-93
2023/11/02 02:30:44;;;;;;;0.52;0.40;;;7.50;99.90;;;;;;5142373;27;20042;-93
2023/11/02 02:33:36;;;;;;;2.25;0.60;;;7.50;99.90;;;;;;5137686;27;20054;-93
2023/11/02 02:36:16;;;;;;;0.88;0.47;;;7.50;99.90;;;;;;5141326;27;20146;-91
2023/11/02 02:38:52;;;;;;;0.95;0.55;;;7.50;99.90;;;;;;5142229;27;20475;-93
2023/11/02 02:41:21;;;;;;;0.50;0.30;;;7.60;99.90;;;;;;5141948;27;20034;-94
2023/11/02 02:43:53;;;;;;;1.33;0.40;;;7.50;99.90;;;;;;5142263;27;20478;-94
2023/11/02 02:46:22;;;;;;;3.22;0.30;;;7.60;99.90;;;;;;5142156;27;20019;-93
2023/11/02 02:48:48;;;;;;;1.40;0.30;;;7.60;99.90;;;;;;5142268;27;20069;-92
2023/11/02 02:51:16;;;;;;;0.80;0.20;;;7.60;99.90;;;;;;5142232;27;20019;-92
2023/11/02 02:53:46;;;;;;;0.17;0.17;;;7.60;99.90;;;;;;5141854;27;20019;-93
2023/11/02 02:56:13;;;;;;;0.23;0.23;;;7.60;99.90;;;;;;5141691;27;20106;-92
2023/11/02 02:59:03;;;;;;;0.63;0.30;;;7.70;99.90;;;;;;5141811;27;20027;-94
2023/11/02 03:01:34;;;;;;;0.32;0.10;;;7.60;99.90;;;;;;5141790;27;20035;-93
2023/11/02 03:04:02;;;;;;;0.55;0.10;;;7.70;99.90;;;;;;5143169;27;20030;-93
2023/11/02 03:06:29;;;;;;;0.40;0.20;;;7.70;99.90;;;;;;5141832;27;20027;-92
2023/11/02 03:08:58;;;;;;;0.28;0.20;;;7.60;99.90;;;;;;5142239;27;20027;-93
2023/11/02 03:11:26;;;;;;;0.65;0.10;;;7.70;99.90;;;;;;5151803;27;20027;-90
2023/11/02 03:13:55;;;;;;;0.40;0.10;;;7.70;99.90;;;;;;5155385;27;20027;-90
2023/11/02 03:16:23;;;;;;;0.40;0.10;;;7.70;99.90;;;;;;5152883;27;20031;-93
2023/11/02 03:18:49;;;;;;;0.10;0.10;;;7.70;99.90;;;;;;5141715;27;20034;-93
2023/11/02 03:21:15;;;;;;;0.32;0.10;;;7.70;99.90;;;;;;5141838;27;20488;-94
2023/11/02 03:24:16;;;;;;;0.08;0.00;;;7.70;99.90;;;;;;5141730;27;20030;-92
2023/11/02 03:26:53;;;;;;;0.13;0.05;;;7.70;99.90;;;;;;5142113;27;20023;-94
2023/11/02 03:29:44;;;;;;;0.00;0.00;;;7.80;99.90;;;;;;5142875;27;20110;-94
2023/11/02 03:32:22;;;;;;;1.83;0.10;;;7.80;99.90;;;;;;5144327;27;20035;-94
2023/11/02 03:35:14;;;;;;;0.57;0.10;;;7.80;99.90;;;;;;5142428;27;20031;-94
2023/11/02 03:38:01;;;;;;;0.00;0.00;;;7.80;99.90;;;;;;5141994;27;20412;-93
2023/11/02 03:40:34;;;;;;;0.08;0.08;;;7.80;99.90;;;;;;5141216;27;20047;-94
2023/11/02 03:43:12;;;;;;;0.10;0.10;;;7.80;99.90;;;;;;5141603;27;20034;-93
2023/11/02 03:45:58;;;;;;;0.38;0.10;;;7.80;99.90;;;;;;5141736;27;20023;-93
2023/11/02 03:48:50;;;;;;;0.20;0.03;;;7.80;99.90;;;;;;5140672;27;20035;-93
2023/11/02 03:51:37;;;;;;;0.00;0.00;;;7.80;99.90;;;;;;5141506;27;20034;-94
2023/11/02 03:54:28;;;;;;;0.10;0.10;;;7.80;99.90;;;;;;5141376;27;20043;-93
2023/11/02 03:56:59;;;;;;;0.22;0.10;;;7.80;99.90;;;;;;5140896;27;20019;-93
2023/11/02 03:59:47;;;;;;;0.47;0.00;;;7.90;99.90;;;;;;5141418;27;20098;-93
2023/11/02 04:02:32;;;;;;;0.43;0.10;;;7.90;99.90;;;;;;5142014;27;20043;-92
2023/11/02 04:05:13;;;;;;;0.15;0.10;;;7.90;99.90;;;;;;5140800;27;20031;-93
2023/11/02 04:08:01;;;;;;;0.20;0.05;;;7.90;99.90;;;;;;5141764;27;20023;-94
2023/11/02 04:10:31;;;;;;;0.08;0.08;;;7.90;99.90;;;;;;5142522;27;20023;-93
2023/11/02 04:13:32;;;;;;;1.85;0.20;;;7.90;99.90;;;;;;5140881;27;20110;-95
2023/11/02 04:15:58;;;;;;;0.08;0.00;;;7.80;99.90;;;;;;5118350;27;20072;-92
2023/11/02 04:18:24;;;;;;;0.60;0.10;;;7.90;99.90;;;;;;5139690;27;20042;-95
2023/11/02 04:20:51;;;;;;;0.15;0.10;;;7.90;99.90;;;;;;5140577;27;20038;-93
2023/11/02 04:23:22;;;;;;;0.32;0.22;;;7.90;99.90;;;;;;5140739;27;20023;-94
2023/11/02 04:25:50;;;;;;;0.20;0.20;;;7.90;99.90;;;;;;5140402;27;20680;-94
2023/11/02 04:28:17;;;;;;;1.65;0.20;;;7.90;99.90;;;;;;5139563;27;20103;-93
2023/11/02 04:30:43;;;;;;;0.28;0.28;;;7.90;99.90;;;;;;5140207;27;20038;-93
2023/11/02 04:33:09;;;;;;;0.55;0.55;;;7.90;99.90;;;;;;5140462;27;20074;-93
2023/11/02 04:35:36;;;;;;;0.60;0.60;;;7.90;99.90;;;;;;5140258;27;20476;-93
2023/11/02 04:38:09;;;;;;;0.70;0.70;;;7.90;99.90;;;;;;5139941;27;20031;-94
2023/11/02 04:40:36;;;;;;;1.15;0.80;;;8.00;99.90;;;;;;5139934;27;20047;-93
2023/11/02 04:43:02;;;;;;;0.80;0.73;;;8.00;99.90;;;;;;5141267;27;20024;-94
2023/11/02 04:45:29;;;;;;;1.42;1.10;;;8.00;99.90;;;;;;5139953;27;20042;-94
2023/11/02 04:47:55;;;;;;;1.55;1.27;;;8.00;99.90;;;;;;5140657;27;20117;-93
2023/11/02 04:50:22;;;;;;;2.35;1.00;;;8.00;99.90;;;;;;5140172;27;20060;-94
2023/11/02 04:52:52;;;;;;;2.05;1.30;;;8.00;99.90;;;;;;5140914;28;20027;-95
2023/11/02 04:55:17;;;;;;;3.35;1.35;;;8.00;99.90;;;;;;5144122;28;20029;-91
2023/11/02 04:57:43;;;;;;;2.35;1.33;;;8.00;99.90;;;;;;5157713;27;20070;-90
2023/11/02 05:00:09;;;;;;;1.80;1.40;;;8.00;99.90;;;;;;5157480;27;20011;-92
2023/11/02 05:02:35;;;;;;;0.82;0.80;;;8.10;99.90;;;;;;5153351;27;20054;-92
2023/11/02 05:05:01;;;;;;;1.95;0.95;;;8.10;99.90;;;;;;5140096;28;20384;-93
2023/11/02 05:07:27;;;;;;;1.13;0.70;;;8.10;99.90;;;;;;5139935;28;20028;-93
2023/11/02 05:09:52;;;;;;;1.30;0.50;;;8.10;99.90;;;;;;5140051;28;20034;-94
2023/11/02 05:12:18;;;;;;;1.98;0.40;;;8.10;99.90;;;;;;5139787;28;20485;-93
2023/11/02 05:14:44;;;;;;;1.02;0.40;;;8.10;99.90;;;;;;5139807;28;20030;-94
2023/11/02 05:17:10;;;;;;;0.60;0.60;;;8.20;99.90;;;;;;5139861;28;20471;-94
2023/11/02 05:19:37;;;;;;;1.08;0.40;;;8.20;99.90;;;;;;5139148;28;20069;-94
2023/11/02 05:22:07;;;;;;;1.67;0.73;;;8.20;99.90;;;;;;5139496;28;20073;-94
2023/11/02 05:24:33;;;;;;;0.80;0.63;;;8.20;99.90;;;;;;5139886;28;20106;-95
2023/11/02 05:26:59;;;;;;;3.42;1.40;;;8.20;99.90;;;;;;5139365;28;20038;-94
2023/11/02 05:29:25;;;;;;;2.47;1.30;;;8.30;99.90;;;;;;5139414;28;20480;-94
2023/11/02 05:31:51;;;;;;;8.48;2.50;;;8.30;99.90;;;;;;5139369;28;20030;-95
2023/11/02 05:34:17;;;;;;;7.13;3.03;;;8.30;99.90;;;;;;5139069;28;20019;-92
2023/11/02 05:36:42;;;;;;;11.18;3.85;;;8.30;99.90;;;;;;5139765;28;20036;-93
2023/11/02 05:39:08;;;;;;;15.30;4.80;;;8.40;99.90;;;;;;5139300;27;20038;-93
2023/11/02 05:41:34;;;;;;;14.55;5.35;;;8.40;99.90;;;;;;5142833;27;20115;-94
2023/11/02 05:43:59;;;;;;;8.60;5.05;;;8.50;99.90;;;;;;5143273;27;20048;-93
2023/11/02 05:46:25;;;;;;;7.82;3.90;;;8.50;99.90;;;;;;5143120;27;20038;-94
2023/11/02 05:48:51;;;;;;;11.07;4.93;;;8.50;99.90;;;;;;5143164;27;20027;-94
2023/11/02 05:51:17;;;;;;;11.90;3.80;;;8.50;99.90;;;;;;5143620;27;20023;-92
2023/11/02 05:53:42;;;;;;;9.98;3.60;;;8.50;99.90;;;;;;5143401;27;20027;-93
2023/11/02 05:56:08;;;;;;;8.98;2.90;;;8.50;99.90;;;;;;5145272;27;20065;-92
2023/11/02 05:58:34;;;;;;;9.23;2.95;;;8.60;99.90;;;;;;5145741;27;20554;-95
2023/11/02 06:01:00;;;;;;;11.18;2.70;;;8.60;99.90;;;;;;5144180;27;20030;-94
2023/11/02 06:03:26;;;;;;;9.25;3.00;;;8.60;99.90;;;;;;5142950;27;20031;-94
2023/11/02 06:05:53;;;;;;;10.85;3.08;;;8.70;99.90;;;;;;5144701;27;20038;-92
2023/11/02 06:08:19;;;;;;;7.78;2.45;;;8.60;99.90;;;;;;5145290;27;20132;-95
2023/11/02 06:10:44;;;;;;;9.55;2.78;;;8.70;99.90;;;;;;5148073;27;20023;-93
2023/11/02 06:13:10;;;;;;;7.82;3.17;;;8.70;99.90;;;;;;5147531;27;20027;-93
2023/11/02 06:15:36;;;;;;;7.60;3.25;;;8.80;99.90;;;;;;5145860;27;20072;-93
2023/11/02 06:18:02;;;;;;;13.02;2.70;;;8.80;99.90;;;;;;5143072;27;20023;-93
2023/11/02 06:20:28;;;;;;;8.60;3.10;;;8.80;99.90;;;;;;5143124;27;20252;-94
2023/11/02 06:22:54;;;;;;;7.93;2.58;;;8.80;99.90;;;;;;5143098;27;20031;-94
2023/11/02 06:25:21;;;;;;;8.85;2.47;;;8.80;99.90;;;;;;5143439;27;20019;-94
2023/11/02 06:27:47;;;;;;;13.93;2.65;;;8.90;99.90;;;;;;5144959;27;20491;-92
2023/11/02 06:30:13;;;;;;;9.68;2.15;;;8.90;99.90;;;;;;5145272;27;20051;-93
2023/11/02 06:32:39;;;;;;;14.77;3.42;;;8.90;99.90;;;;;;5144918;27;20034;-94
2023/11/02 06:35:05;;;;;;;11.95;3.83;;;8.90;99.90;;;;;;5145704;27;20042;-93
2023/11/02 06:37:31;;;;;;;8.30;3.38;;;8.90;99.90;;;;;;5145300;27;20048;-93
2023/11/02 06:39:56;;;;;;;7.80;3.55;;;8.90;99.90;;;;;;5142720;27;20133;-93
2023/11/02 06:42:24;;;;;;;12.00;4.65;;;8.90;99.90;;;;;;5143037;27;20027;-93
2023/11/02 06:44:50;;;;;;;13.73;4.43;;;8.90;99.90;;;;;;5143803;27;20019;-94
2023/11/02 06:47:17;;;;;;;13.52;4.05;;;9.00;99.90;;;;;;5145996;27;20049;-94
2023/11/02 06:49:44;;;;;;;11.02;4.20;;;9.00;99.90;;;;;;5145869;27;20016;-93
2023/11/02 06:52:09;;;;;;;15.75;4.60;;;9.00;99.90;;;;;;5143309;27;20030;-93
2023/11/02 06:54:35;;;;;;;11.75;3.15;;;9.00;99.90;;;;;;5140726;27;20492;-93
2023/11/02 06:57:01;;;;;;;12.88;4.07;;;9.00;99.90;;;;;;5141339;27;20114;-93
2023/11/02 06:59:27;;;;;;;13.30;4.10;;;9.00;99.90;;;;;;5141818;27;20023;-93
2023/11/02 07:01:53;;;;;;;10.95;4.82;;;9.00;99.90;;;;;;5141642;27;20037;-94
2023/11/02 07:04:20;;;;;;;12.50;5.90;;;9.00;99.90;;;;;;5141800;27;20030;-94
2023/11/02 07:06:46;;;;;;;10.73;6.03;;;9.10;99.90;;;;;;5141796;27;20045;-93
2023/11/02 07:09:14;;;;;;;9.60;5.03;;;9.00;99.90;;;;;;5142493;27;20043;-93
2023/11/02 07:11:39;;;;;;;9.88;5.10;;;9.10;99.90;;;;;;5141762;27;20023;-91
2023/11/02 07:14:05;;;;;;;4.72;2.10;;;9.10;99.90;;;;;;5141502;27;20541;-94
2023/11/02 07:16:31;;;;;;;3.67;1.90;;;9.10;99.90;;;;;;5146263;27;20062;-95
2023/11/02 07:18:58;;;;;;;4.88;1.60;;;9.10;99.90;;;;;;5143263;27;20019;-93
2023/11/02 07:21:24;;;;;;;5.40;1.92;;;9.10;99.90;;;;;;5142408;27;20349;-93
2023/11/02 07:23:50;;;;;;;11.90;2.75;;;9.10;99.90;;;;;;5141679;27;20031;-95
2023/11/02 07:26:16;;;;;;;11.95;2.75;;;9.10;99.90;;;;;;5141021;27;20068;-93
2023/11/02 07:28:42;;;;;;;11.98;4.32;;;9.10;99.90;;;;;;5141117;27;20050;-93
2023/11/02 07:31:08;;;;;;;10.98;3.90;;;9.10;99.90;;;;;;5141106;27;20468;-94
2023/11/02 07:33:40;;;;;;;8.43;4.20;;;9.20;99.90;;;;;;5140808;27;20529;-94
2023/11/02 07:36:12;;;;;;;9.57;4.25;;;9.20;99.90;;;;;;5141221;27;20036;-93
2023/11/02 07:38:38;;;;;;;10.82;3.60;;;9.10;99.90;;;;;;5140749;27;20015;-94
2023/11/02 07:41:08;;;;;;;13.93;4.65;;;9.20;99.90;;;;;;5140766;27;20043;-94
2023/11/02 07:43:34;;;;;;;11.95;4.60;;;9.20;99.90;;;;;;5140994;27;20023;-93
2023/11/02 07:46:00;;;;;;;17.35;5.10;;;9.20;99.90;;;;;;5130454;27;20028;-94
2023/11/02 07:48:25;;;;;;;13.52;4.40;;;9.20;99.90;;;;;;5120871;28;20028;-93
2023/11/02 07:50:51;;;;;;;10.93;4.45;;;9.20;99.90;;;;;;5122086;28;20024;-92
2023/11/02 07:53:19;;;;;;;11.68;5.38;;;9.20;99.90;;;;;;5120837;28;20068;-93
2023/11/02 07:55:45;;;;;;;16.85;6.18;;;9.20;99.90;;;;;;5120284;28;20035;-93
2023/11/02 07:58:11;;;;;;;10.65;5.25;;;9.30;99.90;;;;;;5120584;28;20051;-94
2023/11/02 08:00:37;;;;;;;16.15;6.32;;;9.30;99.90;;;;;;5120187;28;20024;-94
2023/11/02 08:03:03;;;;;;;16.20;6.05;;;9.30;99.90;;;;;;5119497;28;20049;-93
2023/11/02 08:05:29;;;;;;;22.63;6.25;;;9.30;99.90;;;;;;5121079;28;20073;-93
2023/11/02 08:07:55;;;;;;;14.02;6.07;;;9.30;99.90;;;;;;5120402;28;20059;-94
2023/11/02 08:10:20;;;;;;;14.88;6.63;;;9.30;99.90;;;;;;5120033;28;20063;-93
2023/11/02 08:12:46;;;;;;;10.60;7.25;;;9.30;99.90;;;;;;5119791;28;20558;-93
2023/11/02 08:15:12;;;;;;;15.52;7.43;;;9.40;99.90;;;;;;5120155;28;20054;-94
2023/11/02 08:17:40;;;;;;;15.68;7.40;;;9.40;99.90;;;;;;5119862;28;20019;-93
2023/11/02 08:20:07;;;;;;;11.40;6.93;;;9.40;99.90;;;;;;5119918;28;20027;-94
2023/11/02 08:22:33;;;;;;;14.13;6.70;;;9.40;99.90;;;;;;5119498;28;20563;-93
2023/11/02 08:24:58;;;;;;;12.73;6.40;;;9.40;99.90;;;;;;5119590;28;20054;-92
2023/11/02 08:27:24;;;;;;;11.25;6.43;;;9.40;99.90;;;;;;5119636;28;20127;-93
2023/11/02 08:29:50;;;;;;;11.65;5.45;;;9.40;99.90;;;;;;5119548;28;20024;-94
2023/11/02 08:32:16;;;;;;;15.07;5.90;;;9.40;99.90;;;;;;5122316;28;20034;-93
2023/11/02 08:34:42;;;;;;;12.32;6.30;;;9.40;99.90;;;;;;5122960;28;20030;-92
2023/11/02 08:37:11;;;;;;;12.60;6.43;;;9.40;99.90;;;;;;5121201;28;20055;-93
2023/11/02 08:39:39;;;;;;;11.88;5.90;;;9.40;99.90;;;;;;5115311;28;20032;-93
2023/11/02 08:42:05;;;;;;;15.00;5.82;;;9.50;99.90;;;;;;5113155;28;20519;-92
2023/11/02 08:44:30;;;;;;;11.07;5.68;;;9.50;99.90;;;;;;5113434;28;20020;-93
2023/11/02 08:46:56;;;;;;;10.75;5.47;;;9.50;99.90;;;;;;5113557;28;20072;-95
2023/11/02 08:49:22;;;;;;;12.57;6.05;;;9.50;99.90;;;;;;5113481;28;20031;-95
2023/11/02 08:51:48;;;;;;;13.50;6.63;;;9.50;99.90;;;;;;5113682;28;20023;-94
2023/11/02 08:54:13;;;;;;;12.32;6.22;;;9.50;99.90;;;;;;5113606;28;20038;-95
2023/11/02 08:56:40;;;;;;;13.93;6.55;;;9.50;99.90;;;;;;5113873;28;20054;-94
2023/11/02 08:59:06;;;;;;;9.38;5.65;;;9.50;99.90;;;;;;5113491;28;20123;-94
2023/11/02 09:01:32;;;;;;;12.48;6.15;;;9.50;99.90;;;;;;5113833;28;20075;-94
2023/11/02 09:03:58;;;;;;;16.05;7.72;;;9.60;99.90;;;;;;5113506;28;20068;-94
2023/11/02 09:06:25;;;;;;;16.20;5.63;;;9.60;99.90;;;;;;5113518;28;20088;-95
2023/11/02 09:08:51;;;;;;;9.45;5.22;;;9.60;99.90;;;;;;5114771;28;20024;-94
2023/11/02 09:11:18;;;;;;;13.07;5.80;;;9.60;99.90;;;;;;5113087;28;20050;-94
2023/11/02 09:13:44;;;;;;;13.13;5.95;;;9.60;99.90;;;;;;5113555;28;20429;-94
2023/11/02 09:16:10;;;;;;;16.15;6.65;;;9.60;99.90;;;;;;5118318;28;20019;-93
2023/11/02 09:18:36;;;;;;;15.57;6.40;;;9.70;99.90;;;;;;5116910;28;20023;-93
2023/11/02 09:21:04;;;;;;;16.10;6.35;;;9.70;99.90;;;;;;5118202;28;20062;-93
2023/11/02 09:23:32;;;;;;;12.10;6.05;;;9.80;99.90;;;;;;5117148;28;20034;-94
2023/11/02 09:25:57;;;;;;;15.00;6.10;;;9.80;99.90;;;;;;5116773;28;20024;-94
2023/11/02 09:28:23;;;;;;;14.80;6.32;;;9.80;99.90;;;;;;5116762;28;20035;-93
2023/11/02 09:30:51;;;;;;;14.60;5.68;;;9.80;99.90;;;;;;5116965;28;20492;-94
2023/11/02 09:33:18;;;;;;;14.55;6.53;;;9.80;99.90;;;;;;5117135;28;20047;-92
2023/11/02 09:35:44;;;;;;;12.73;6.90;;;9.80;99.90;;;;;;5117882;28;20465;-93
2023/11/02 09:38:10;;;;;;;12.23;6.65;;;9.80;99.90;;;;;;5124635;28;20027;-93
2023/11/02 09:40:36;;;;;;;18.75;6.90;;;9.90;99.90;;;;;;5119791;28;20040;-93
2023/11/02 09:43:04;;;;;;;17.65;7.03;;;9.90;99.90;;;;;;5121536;28;20042;-93
2023/11/02 09:45:30;;;;;;;21.63;7.15;;;9.90;99.90;;;;;;5127332;28;20047;-94
2023/11/02 09:47:59;;;;;;;13.15;6.65;;;9.90;99.90;;;;;;5123044;28;20456;-94
2023/11/02 09:50:25;;;;;;;15.35;6.80;;;9.90;99.90;;;;;;5117758;28;20107;-94
2023/11/02 09:52:54;;;;;;;14.93;6.68;;;9.90;99.90;;;;;;5116879;28;20122;-93
2023/11/02 09:55:20;;;;;;;18.10;6.72;;;9.90;99.90;;;;;;5116676;28;20027;-93
2023/11/02 09:57:48;;;;;;;18.60;5.60;;;9.90;99.90;;;;;;5119297;28;20072;-94
2023/11/02 10:00:17;;;;;;;10.10;5.10;;;9.90;99.90;;;;;;5117037;28;20024;-94
2023/11/02 10:02:46;;;;;;;12.70;4.70;;;9.90;99.90;;;;;;5116216;28;20059;-95
2023/11/02 10:05:11;;;;;;;10.10;4.30;;;9.90;99.90;;;;;;5116605;28;20121;-94
2023/11/02 10:07:37;;;;;;;9.65;3.88;;;10.00;99.90;;;;;;5116587;28;20020;-92
2023/11/02 10:10:04;;;;;;;10.57;3.80;;;10.00;99.90;;;;;;5118690;28;20061;-94
2023/11/02 10:12:35;;;;;;;6.20;3.83;;;10.00;99.90;;;;;;5122745;28;20035;-93
2023/11/02 10:15:02;;;;;;;12.38;4.28;;;10.00;99.90;;;;;;5117907;28;20020;-92
2023/11/02 10:17:37;;;;;;;8.50;4.53;;;10.00;99.90;;;;;;5117891;28;20501;-96
2023/11/02 10:20:14;;;;;;;6.30;3.95;;;10.00;99.90;;;;;;5118025;28;20020;-95
2023/11/02 10:22:42;;;;;;;4.60;2.92;;;10.00;99.90;;;;;;5116313;28;20042;-94
2023/11/02 10:25:11;;;;;;;6.13;2.85;;;10.00;99.90;;;;;;5115158;28;20101;-94
2023/11/02 10:27:39;;;;;;;5.32;2.50;;;9.90;99.90;;;;;;5115606;28;20429;-94
2023/11/02 10:30:05;;;;;;;4.90;2.30;;;9.90;99.90;;;;;;5115729;28;20032;-94
2023/11/02 10:32:31;;;;;;;8.20;3.25;;;10.00;99.90;;;;;;5115956;28;20024;-95
2023/11/02 10:34:57;;;;;;;8.75;3.13;;;10.00;99.90;;;;;;5116871;28;20029;-94
2023/11/02 10:37:31;;;;;;;13.73;4.18;;;10.00;99.90;;;;;;5116882;28;20058;-95
2023/11/02 10:39:57;;;;;;;8.30;4.20;;;10.00;99.90;;;;;;5116106;28;20039;-94
2023/11/02 10:42:27;;;;;;;9.23;5.47;;;10.00;99.90;;;;;;5116597;28;20453;-95
2023/11/02 10:44:54;;;;;;;10.38;5.22;;;10.00;99.90;;;;;;5119607;28;20046;-94
2023/11/02 10:47:32;;;;;;;15.55;7.47;;;10.00;99.90;;;;;;5117959;28;20073;-94
2023/11/02 10:49:59;;;;;;;12.23;6.50;;;10.00;99.90;;;;;;5117015;28;20416;-93
2023/11/02 10:52:33;;;;;;;12.05;6.07;;;10.00;99.90;;;;;;5115980;28;20477;-94
2023/11/02 10:55:21;;;;;;;18.00;7.05;;;10.00;99.90;;;;;;5115966;28;20142;-95
2023/11/02 10:57:48;;;;;;;12.80;5.43;;;10.10;99.90;;;;;;5115243;28;20110;-93
2023/11/02 11:00:16;;;;;;;12.43;5.65;;;10.00;99.90;;;;;;5114982;28;20122;-94
2023/11/02 11:02:45;;;;;;;10.57;4.85;;;10.10;99.90;;;;;;5115990;28;20042;-94
2023/11/02 11:05:14;;;;;;;13.63;5.85;;;10.10;99.90;;;;;;5115044;28;20024;-96
2023/11/02 11:07:42;;;;;;;13.57;4.80;;;10.10;99.90;;;;;;5114399;28;20178;-94
2023/11/02 11:10:12;;;;;;;10.65;4.55;;;10.10;99.90;;;;;;5115148;28;20091;-95
2023/11/02 11:12:40;;;;;;;11.23;4.53;;;10.10;99.90;;;;;;5114964;28;20024;-94
2023/11/02 11:15:07;;;;;;;5.00;2.33;;;10.20;99.90;;;;;;5114863;28;20130;-95
2023/11/02 11:17:34;;;;;;;3.85;1.65;;;10.20;99.90;;;;;;5115248;28;20020;-96
2023/11/02 11:20:00;;;;;;;4.43;1.75;;;10.20;99.90;;;;;;5114997;28;20020;-94
2023/11/02 11:22:34;;;;;;;4.35;1.35;;;10.30;99.90;;;;;;5118014;28;20039;-94
2023/11/02 11:25:04;;;;;;;5.20;0.80;;;10.40;99.90;;;;;;5116778;28;20039;-95
2023/11/02 11:27:36;;;;;;;4.70;1.58;;;10.40;99.90;;;;;;5115177;28;20114;-94
2023/11/02 11:30:04;;;;;;;2.58;0.70;;;10.40;99.90;;;;;;5116914;28;20023;-94
2023/11/02 11:32:32;;;;;;;2.03;0.40;;;10.50;99.90;;;;;;5116582;28;20036;-94
2023/11/02 11:35:01;;;;;;;1.60;0.40;;;10.50;99.90;;;;;;5117850;28;20024;-96
2023/11/02 11:37:41;;;;;;;2.08;0.63;;;10.50;99.90;;;;;;5119181;28;20457;-94
2023/11/02 11:40:29;;;;;;;1.48;0.40;;;10.50;99.90;;;;;;5119213;28;20047;-93
2023/11/02 11:45:36;;;;;;;3.20;0.68;;;10.60;99.90;;;;;;5116707;28;20069;-94
2023/11/02 11:48:04;;;;;;;3.05;0.80;;;10.70;99.90;;;;;;5123091;28;20072;-92
2023/11/02 11:50:39;;;;;;;1.80;0.88;;;10.80;99.90;;;;;;5130260;28;20027;-92
2023/11/02 11:53:23;;;;;;;4.30;0.63;;;10.80;99.90;;;;;;5129774;28;20028;-93
2023/11/02 11:55:53;;;;;;;4.18;0.70;;;10.80;99.90;;;;;;5114792;28;20118;-93
2023/11/02 11:58:44;;;;;;;3.17;0.60;;;10.90;99.90;;;;;;5114251;28;20072;-93
2023/11/02 12:01:18;;;;;;;2.65;0.90;;;10.80;99.90;;;;;;5114249;28;20476;-93
2023/11/02 12:03:47;;;;;;;1.70;0.70;;;10.80;99.90;;;;;;5115651;28;20095;-95
2023/11/02 12:06:14;;;;;;;1.33;0.47;;;10.80;99.90;;;;;;5114894;28;20027;-96
2023/11/02 12:08:45;;;;;;;2.90;1.00;;;10.70;99.90;;;;;;5129112;28;20022;-95
2023/11/02 12:11:13;;;;;;;13.93;9.80;;;10.70;99.90;;;;;;5121053;28;20039;-93
2023/11/02 12:13:50;;;;;;;57.30;40.58;;;10.60;99.90;;;;;;5126681;28;20008;-95
2023/11/02 12:16:15;;;;;;;94.35;70.15;;;10.60;99.90;;;;;;5130836;28;20048;-91
2023/11/02 12:18:43;;;;;;;74.90;61.58;;;10.60;99.90;;;;;;5117065;28;20107;-96
2023/11/02 12:21:18;;;;;;;64.38;50.50;;;10.60;99.90;;;;;;5115627;28;20495;-94
2023/11/02 12:23:44;;;;;;;46.22;31.55;;;10.60;99.90;;;;;;5114893;28;20031;-95
2023/11/02 12:26:10;;;;;;;10.85;9.05;;;10.60;99.90;;;;;;5120678;28;20027;-95
2023/11/02 12:28:49;;;;;;;23.48;16.65;;;10.60;99.90;;;;;;5121519;28;20027;-95
2023/11/02 12:31:32;;;;;;;18.13;13.07;;;10.70;99.90;;;;;;5114430;28;20077;-94
2023/11/02 12:34:08;;;;;;;16.98;9.13;;;10.70;99.90;;;;;;5113485;28;20024;-93
2023/11/02 12:36:34;;;;;;;5.32;1.75;;;10.70;99.90;;;;;;5114264;28;20051;-94
2023/11/02 12:39:00;;;;;;;4.13;2.88;;;10.70;99.90;;;;;;5115885;28;20030;-96
2023/11/02 12:41:33;;;;;;;2.33;1.55;;;10.60;99.90;;;;;;5120872;28;20036;-96
2023/11/02 12:43:59;;;;;;;2.13;1.10;;;10.60;99.90;;;;;;5120625;28;20073;-93
2023/11/02 12:46:24;;;;;;;2.88;1.25;;;10.50;99.90;;;;;;5115152;28;20423;-93
2023/11/02 12:48:50;;;;;;;4.30;1.40;;;10.40;99.90;;;;;;5113899;28;20031;-95
2023/11/02 12:51:21;;;;;;;2.95;1.52;;;10.40;99.90;;;;;;5114551;28;20046;-94
2023/11/02 12:53:48;;;;;;;6.50;1.35;;;10.30;99.90;;;;;;5113910;28;20039;-93
2023/11/02 12:56:34;;;;;;;2.38;1.27;;;10.30;99.90;;;;;;5114472;28;20334;-94
2023/11/02 12:59:04;;;;;;;2.75;1.80;;;10.20;99.90;;;;;;5113545;28;20056;-96
2023/11/02 13:02:02;;;;;;;3.35;1.92;;;10.20;99.90;;;;;;5117896;28;20039;-94
2023/11/02 13:05:00;;;;;;;2.65;0.70;;;10.10;99.90;;;;;;5136073;28;20019;-95
2023/11/02 13:07:31;;;;;;;17.67;1.73;;;10.10;99.90;;;;;;5111304;28;20038;-93
2023/11/02 13:10:14;;;;;;;1.40;0.85;;;10.00;99.90;;;;;;5116274;28;20047;-93
2023/11/02 13:12:41;;;;;;;2.05;0.90;;;10.00;99.90;;;;;;5114466;28;20058;-92